createdAt,value
2017-03-19T00:00:11.966Z,1001.87
2017-03-19T00:00:52.553Z,1001.92
2017-03-19T00:01:33.129Z,1001.92
2017-03-19T00:02:13.756Z,1001.9
2017-03-19T00:02:54.420Z,1001.9
2017-03-19T00:03:35.002Z,1001.9
2017-03-19T00:04:15.607Z,1001.93
2017-03-19T00:04:56.182Z,1001.95
2017-03-19T00:05:36.786Z,1001.97
2017-03-19T00:06:17.391Z,1001.99
2017-03-19T00:06:58.005Z,1001.99
2017-03-19T00:07:38.583Z,1001.99
2017-03-19T00:08:19.158Z,1002.02
2017-03-19T00:08:59.734Z,1002
2017-03-19T00:09:40.360Z,1002.04
2017-03-19T00:10:20.946Z,1002.09
2017-03-19T00:11:01.537Z,1002.06
2017-03-19T00:11:42.123Z,1002.08
2017-03-19T00:12:22.698Z,1002.07
2017-03-19T00:13:03.290Z,1002.25
2017-03-19T00:13:43.854Z,1002.2
2017-03-19T00:14:24.429Z,1002.18
2017-03-19T00:15:04.999Z,1002.19
2017-03-19T00:15:45.558Z,1002.22
2017-03-19T00:16:26.235Z,1002.25
2017-03-19T00:17:06.818Z,1002.14
2017-03-19T00:17:47.402Z,1002.19
2017-03-19T00:18:27.980Z,1002.12
2017-03-19T00:19:08.571Z,1002.14
2017-03-19T00:19:49.153Z,1002.15
2017-03-19T00:20:29.742Z,1002.14
2017-03-19T00:21:10.369Z,1002.13
2017-03-19T00:21:50.934Z,1002.15
2017-03-19T00:22:31.542Z,1002.06
2017-03-19T00:23:12.139Z,1002.18
2017-03-19T00:23:52.738Z,1002.18
2017-03-19T00:24:33.356Z,1002.2
2017-03-19T00:25:14.014Z,1002.21
2017-03-19T00:25:54.593Z,1002.19
2017-03-19T00:26:35.221Z,1002.19
2017-03-19T00:27:15.758Z,1002.15
2017-03-19T00:27:56.364Z,1002.14
2017-03-19T00:28:36.964Z,1002.16
2017-03-19T00:29:17.596Z,1002.21
2017-03-19T00:29:58.128Z,1002.18
2017-03-19T00:30:38.798Z,1002.19
2017-03-19T00:31:19.377Z,1002.22
2017-03-19T00:31:59.989Z,1002.23
2017-03-19T00:32:40.579Z,1002.24
2017-03-19T00:33:21.160Z,1002.27
2017-03-19T00:34:01.759Z,1002.3
2017-03-19T00:34:42.334Z,1002.34
2017-03-19T00:35:22.978Z,1002.31
2017-03-19T00:36:03.549Z,1002.35
2017-03-19T00:36:44.125Z,1002.29
2017-03-19T00:37:24.708Z,1002.31
2017-03-19T00:38:05.304Z,1002.38
2017-03-19T00:38:45.889Z,1002.37
2017-03-19T00:39:26.455Z,1002.32
2017-03-19T00:40:07.032Z,1002.34
2017-03-19T00:40:47.771Z,1002.34
2017-03-19T00:41:28.329Z,1002.35
2017-03-19T00:42:08.922Z,1002.34
2017-03-19T00:42:49.543Z,1002.31
2017-03-19T00:43:30.171Z,1002.32
2017-03-19T00:44:10.791Z,1002.35
2017-03-19T00:44:51.369Z,1002.32
2017-03-19T00:45:31.942Z,1002.29
2017-03-19T00:46:12.527Z,1002.32
2017-03-19T00:46:53.126Z,1002.3
2017-03-19T00:47:33.732Z,1002.31
2017-03-19T00:48:14.337Z,1002.28
2017-03-19T00:48:54.889Z,1002.29
2017-03-19T00:49:35.504Z,1002.22
2017-03-19T00:50:16.091Z,1002.26
2017-03-19T00:50:56.685Z,1002.19
2017-03-19T00:51:37.278Z,1002.24
2017-03-19T00:52:17.845Z,1002.29
2017-03-19T00:52:58.446Z,1002.21
2017-03-19T00:53:39.081Z,1002.27
2017-03-19T00:54:19.659Z,1002.28
2017-03-19T00:55:00.251Z,1002.24
2017-03-19T00:55:40.834Z,1002.29
2017-03-19T00:56:21.414Z,1002.32
2017-03-19T00:57:02.002Z,1002.3
2017-03-19T00:57:42.631Z,1002.25
2017-03-19T00:58:23.190Z,1002.33
2017-03-19T00:59:03.885Z,1002.33
2017-03-19T00:59:44.479Z,1002.32
2017-03-19T01:00:25.095Z,1002.33
2017-03-19T01:01:05.702Z,1002.34
2017-03-19T01:01:46.262Z,1002.38
2017-03-19T01:02:26.884Z,1002.39
2017-03-19T01:03:07.483Z,1002.47
2017-03-19T01:03:48.117Z,1002.42
2017-03-19T01:04:28.736Z,1002.51
2017-03-19T01:05:09.351Z,1002.48
2017-03-19T01:05:49.962Z,1002.44
2017-03-19T01:06:30.527Z,1002.52
2017-03-19T01:07:11.166Z,1002.56
2017-03-19T01:07:51.729Z,1002.49
2017-03-19T01:08:32.338Z,1002.54
2017-03-19T01:09:12.928Z,1002.54
2017-03-19T01:09:53.532Z,1002.53
2017-03-19T01:10:34.126Z,1002.54
2017-03-19T01:11:14.747Z,1002.58
2017-03-19T01:11:55.338Z,1002.57
2017-03-19T01:12:35.907Z,1002.58
2017-03-19T01:13:16.500Z,1002.59
2017-03-19T01:13:57.080Z,1002.64
2017-03-19T01:14:37.682Z,1002.62
2017-03-19T01:15:18.276Z,1002.59
2017-03-19T01:15:58.909Z,1002.65
2017-03-19T01:16:39.483Z,1002.65
2017-03-19T01:17:20.108Z,1002.62
2017-03-19T01:18:00.671Z,1002.64
2017-03-19T01:18:41.247Z,1002.68
2017-03-19T01:19:21.839Z,1002.68
2017-03-19T01:20:02.425Z,1002.65
2017-03-19T01:20:43.015Z,1002.71
2017-03-19T01:21:23.623Z,1002.65
2017-03-19T01:22:04.210Z,1002.67
2017-03-19T01:22:44.803Z,1002.65
2017-03-19T01:23:25.412Z,1002.64
2017-03-19T01:24:06.014Z,1002.68
2017-03-19T01:24:46.601Z,1002.69
2017-03-19T01:25:27.175Z,1002.69
2017-03-19T01:26:07.839Z,1002.71
2017-03-19T01:26:48.404Z,1002.7
2017-03-19T01:27:28.974Z,1002.69
2017-03-19T01:28:09.578Z,1002.7
2017-03-19T01:28:50.158Z,1002.66
2017-03-19T01:29:30.727Z,1002.71
2017-03-19T01:30:11.340Z,1002.71
2017-03-19T01:30:51.904Z,1002.72
2017-03-19T01:31:32.474Z,1002.7
2017-03-19T01:32:13.049Z,1002.72
2017-03-19T01:32:53.669Z,1002.73
2017-03-19T01:33:34.233Z,1002.73
2017-03-19T01:34:14.807Z,1002.7
2017-03-19T01:34:55.381Z,1002.74
2017-03-19T01:35:35.974Z,1002.82
2017-03-19T01:36:16.583Z,1002.77
2017-03-19T01:36:57.190Z,1002.75
2017-03-19T01:37:37.784Z,1002.76
2017-03-19T01:38:18.348Z,1002.78
2017-03-19T01:38:58.950Z,1002.79
2017-03-19T01:39:39.560Z,1002.79
2017-03-19T01:40:20.136Z,1002.76
2017-03-19T01:41:00.716Z,1002.8
2017-03-19T01:41:41.286Z,1002.77
2017-03-19T01:42:21.850Z,1002.8
2017-03-19T01:43:02.435Z,1002.82
2017-03-19T01:43:43.018Z,1002.82
2017-03-19T01:44:23.612Z,1002.85
2017-03-19T01:45:04.184Z,1002.82
2017-03-19T01:45:44.766Z,1002.83
2017-03-19T01:46:25.355Z,1002.85
2017-03-19T01:47:05.984Z,1002.89
2017-03-19T01:47:46.597Z,1002.89
2017-03-19T01:48:27.186Z,1002.91
2017-03-19T01:49:07.746Z,1002.91
2017-03-19T01:49:48.317Z,1002.93
2017-03-19T01:50:28.933Z,1002.9
2017-03-19T01:51:09.532Z,1002.97
2017-03-19T01:51:50.205Z,1002.94
2017-03-19T01:52:30.760Z,1002.95
2017-03-19T01:53:11.306Z,1002.91
2017-03-19T01:53:51.937Z,1002.96
2017-03-19T01:54:32.516Z,1002.99
2017-03-19T01:55:13.111Z,1002.99
2017-03-19T01:55:53.699Z,1002.97
2017-03-19T01:56:34.335Z,1003.01
2017-03-19T01:57:14.910Z,1003.05
2017-03-19T01:57:55.495Z,1003.11
2017-03-19T01:58:36.095Z,1003.11
2017-03-19T01:59:16.673Z,1003.13
2017-03-19T01:59:57.282Z,1003.12
2017-03-19T02:00:37.851Z,1003.13
2017-03-19T02:01:18.427Z,1003.14
2017-03-19T02:01:59.030Z,1003.14
2017-03-19T02:02:39.829Z,1003.15
2017-03-19T02:03:20.443Z,1003.17
2017-03-19T02:04:01.068Z,1003.16
2017-03-19T02:04:41.637Z,1003.18
2017-03-19T02:05:22.225Z,1003.17
2017-03-19T02:06:02.811Z,1003.15
2017-03-19T02:06:43.397Z,1003.18
2017-03-19T02:07:24.054Z,1003.2
2017-03-19T02:08:04.647Z,1003.24
2017-03-19T02:08:45.253Z,1003.21
2017-03-19T02:09:25.818Z,1003.17
2017-03-19T02:10:06.406Z,1003.18
2017-03-19T02:10:47.005Z,1003.12
2017-03-19T02:11:27.556Z,1003.16
2017-03-19T02:12:08.204Z,1003.1
2017-03-19T02:12:48.762Z,1003.15
2017-03-19T02:13:29.357Z,1003.15
2017-03-19T02:14:09.945Z,1003.18
2017-03-19T02:14:50.561Z,1003.21
2017-03-19T02:15:31.136Z,1003.2
2017-03-19T02:16:11.734Z,1003.22
2017-03-19T02:16:52.314Z,1003.2
2017-03-19T02:17:32.951Z,1003.21
2017-03-19T02:18:13.523Z,1003.19
2017-03-19T02:18:54.143Z,1003.21
2017-03-19T02:19:34.725Z,1003.21
2017-03-19T02:20:15.343Z,1003.24
2017-03-19T02:20:55.953Z,1003.22
2017-03-19T02:21:36.535Z,1003.26
2017-03-19T02:22:17.178Z,1003.24
2017-03-19T02:22:57.746Z,1003.23
2017-03-19T02:23:38.341Z,1003.22
2017-03-19T02:24:18.951Z,1003.24
2017-03-19T02:24:59.541Z,1003.23
2017-03-19T02:25:40.110Z,1003.24
2017-03-19T02:26:20.701Z,1003.27
2017-03-19T02:27:01.350Z,1003.24
2017-03-19T02:27:41.946Z,1003.29
2017-03-19T02:28:22.598Z,1003.3
2017-03-19T02:29:03.216Z,1003.3
2017-03-19T02:29:43.801Z,1003.26
2017-03-19T02:30:24.432Z,1003.29
2017-03-19T02:31:05.005Z,1003.29
2017-03-19T02:31:45.585Z,1003.32
2017-03-19T02:32:26.194Z,1003.32
2017-03-19T02:33:06.767Z,1003.35
2017-03-19T02:33:47.398Z,1003.35
2017-03-19T02:34:28.165Z,1003.34
2017-03-19T02:35:08.778Z,1003.31
2017-03-19T02:35:49.356Z,1003.35
2017-03-19T02:36:29.929Z,1003.35
2017-03-19T02:37:10.571Z,1003.37
2017-03-19T02:37:51.176Z,1003.35
2017-03-19T02:38:31.736Z,1003.39
2017-03-19T02:39:12.321Z,1003.37
2017-03-19T02:39:52.947Z,1003.36
2017-03-19T02:40:33.547Z,1003.34
2017-03-19T02:41:14.126Z,1003.35
2017-03-19T02:41:54.713Z,1003.35
2017-03-19T02:42:35.300Z,1003.34
2017-03-19T02:43:15.920Z,1003.3
2017-03-19T02:43:56.530Z,1003.4
2017-03-19T02:44:37.111Z,1003.35
2017-03-19T02:45:17.701Z,1003.34
2017-03-19T02:45:58.272Z,1003.38
2017-03-19T02:46:38.857Z,1003.41
2017-03-19T02:47:19.465Z,1003.4
2017-03-19T02:48:00.036Z,1003.43
2017-03-19T02:48:40.668Z,1003.41
2017-03-19T02:49:21.253Z,1003.42
2017-03-19T02:50:01.839Z,1003.4
2017-03-19T02:50:42.464Z,1003.4
2017-03-19T02:51:23.044Z,1003.44
2017-03-19T02:52:03.650Z,1003.44
2017-03-19T02:52:44.226Z,1003.45
2017-03-19T02:53:24.803Z,1003.45
2017-03-19T02:54:05.369Z,1003.49
2017-03-19T02:54:45.950Z,1003.44
2017-03-19T02:55:26.518Z,1003.46
2017-03-19T02:56:07.173Z,1003.49
2017-03-19T02:56:47.768Z,1003.45
2017-03-19T02:57:28.374Z,1003.48
2017-03-19T02:58:08.961Z,1003.52
2017-03-19T02:58:49.539Z,1003.47
2017-03-19T02:59:30.123Z,1003.44
2017-03-19T03:00:10.727Z,1003.45
2017-03-19T03:00:51.353Z,1003.42
2017-03-19T03:01:31.918Z,1003.46
2017-03-19T03:02:12.522Z,1003.48
2017-03-19T03:02:53.087Z,1003.53
2017-03-19T03:03:33.685Z,1003.48
2017-03-19T03:04:14.281Z,1003.48
2017-03-19T03:04:54.879Z,1003.5
2017-03-19T03:05:35.495Z,1003.49
2017-03-19T03:06:16.076Z,1003.49
2017-03-19T03:06:56.694Z,1003.45
2017-03-19T03:07:37.295Z,1003.52
2017-03-19T03:08:17.915Z,1003.48
2017-03-19T03:08:58.464Z,1003.54
2017-03-19T03:09:39.079Z,1003.49
2017-03-19T03:10:19.695Z,1003.49
2017-03-19T03:11:00.298Z,1003.5
2017-03-19T03:11:40.867Z,1003.53
2017-03-19T03:12:21.459Z,1003.55
2017-03-19T03:13:02.056Z,1003.56
2017-03-19T03:13:42.642Z,1003.56
2017-03-19T03:14:23.215Z,1003.58
2017-03-19T03:15:03.804Z,1003.57
2017-03-19T03:15:44.409Z,1003.53
2017-03-19T03:16:25.011Z,1003.6
2017-03-19T03:17:05.605Z,1003.6
2017-03-19T03:17:46.189Z,1003.58
2017-03-19T03:18:26.749Z,1003.61
2017-03-19T03:19:07.333Z,1003.6
2017-03-19T03:19:47.916Z,1003.62
2017-03-19T03:20:28.520Z,1003.53
2017-03-19T03:21:09.125Z,1003.58
2017-03-19T03:21:49.723Z,1003.58
2017-03-19T03:22:30.311Z,1003.56
2017-03-19T03:23:10.897Z,1003.61
2017-03-19T03:23:51.517Z,1003.58
2017-03-19T03:24:32.114Z,1003.57
2017-03-19T03:25:12.713Z,1003.61
2017-03-19T03:25:53.315Z,1003.57
2017-03-19T03:26:33.910Z,1003.58
2017-03-19T03:27:14.483Z,1003.58
2017-03-19T03:27:55.092Z,1003.59
2017-03-19T03:28:35.708Z,1003.58
2017-03-19T03:29:16.292Z,1003.62
2017-03-19T03:29:56.874Z,1003.59
2017-03-19T03:30:37.475Z,1003.59
2017-03-19T03:31:18.085Z,1003.63
2017-03-19T03:31:58.637Z,1003.63
2017-03-19T03:32:39.226Z,1003.61
2017-03-19T03:33:19.847Z,1003.6
2017-03-19T03:34:00.447Z,1003.59
2017-03-19T03:34:41.050Z,1003.58
2017-03-19T03:35:21.673Z,1003.56
2017-03-19T03:36:02.242Z,1003.59
2017-03-19T03:36:42.845Z,1003.63
2017-03-19T03:37:23.419Z,1003.6
2017-03-19T03:38:04.024Z,1003.65
2017-03-19T03:38:44.609Z,1003.64
2017-03-19T03:39:25.205Z,1003.65
2017-03-19T03:40:05.818Z,1003.61
2017-03-19T03:40:46.388Z,1003.65
2017-03-19T03:41:27.013Z,1003.69
2017-03-19T03:42:07.609Z,1003.71
2017-03-19T03:42:48.172Z,1003.71
2017-03-19T03:43:28.748Z,1003.7
2017-03-19T03:44:09.340Z,1003.71
2017-03-19T03:44:49.932Z,1003.71
2017-03-19T03:45:30.515Z,1003.77
2017-03-19T03:46:11.164Z,1003.71
2017-03-19T03:46:51.770Z,1003.72
2017-03-19T03:47:32.404Z,1003.74
2017-03-19T03:48:12.982Z,1003.81
2017-03-19T03:48:53.585Z,1003.79
2017-03-19T03:49:34.191Z,1003.82
2017-03-19T03:50:14.770Z,1003.79
2017-03-19T03:50:55.337Z,1003.77
2017-03-19T03:51:35.937Z,1003.79
2017-03-19T03:52:16.573Z,1003.74
2017-03-19T03:52:57.122Z,1003.76
2017-03-19T03:53:37.709Z,1003.72
2017-03-19T03:54:18.294Z,1003.74
2017-03-19T03:54:58.888Z,1003.77
2017-03-19T03:55:39.463Z,1003.76
2017-03-19T03:56:20.088Z,1003.74
2017-03-19T03:57:00.666Z,1003.78
2017-03-19T03:57:41.265Z,1003.76
2017-03-19T03:58:21.808Z,1003.73
2017-03-19T03:59:02.379Z,1003.81
2017-03-19T03:59:43.014Z,1003.77
2017-03-19T04:00:23.610Z,1003.82
2017-03-19T04:01:04.212Z,1003.83
2017-03-19T04:01:44.803Z,1003.82
2017-03-19T04:02:25.419Z,1003.86
2017-03-19T04:03:06.010Z,1003.85
2017-03-19T04:03:46.612Z,1003.86
2017-03-19T04:04:27.217Z,1003.82
2017-03-19T04:05:07.823Z,1003.79
2017-03-19T04:05:48.423Z,1003.76
2017-03-19T04:06:29.026Z,1003.76
2017-03-19T04:07:09.599Z,1003.76
2017-03-19T04:07:50.171Z,1003.74
2017-03-19T04:08:30.751Z,1003.75
2017-03-19T04:09:11.336Z,1003.75
2017-03-19T04:09:51.909Z,1003.79
2017-03-19T04:10:32.566Z,1003.83
2017-03-19T04:11:13.123Z,1003.83
2017-03-19T04:11:53.737Z,1003.86
2017-03-19T04:12:34.335Z,1003.86
2017-03-19T04:13:14.940Z,1003.86
2017-03-19T04:13:55.515Z,1003.86
2017-03-19T04:14:36.101Z,1003.87
2017-03-19T04:15:16.695Z,1003.87
2017-03-19T04:15:57.259Z,1003.86
2017-03-19T04:16:37.832Z,1003.88
2017-03-19T04:17:18.429Z,1003.8
2017-03-19T04:17:59.019Z,1003.8
2017-03-19T04:18:39.635Z,1003.77
2017-03-19T04:19:20.217Z,1003.77
2017-03-19T04:20:00.815Z,1003.85
2017-03-19T04:20:41.389Z,1003.87
2017-03-19T04:21:21.966Z,1003.86
2017-03-19T04:22:02.567Z,1003.89
2017-03-19T04:22:43.172Z,1003.95
2017-03-19T04:23:23.742Z,1003.88
2017-03-19T04:24:04.318Z,1003.88
2017-03-19T04:24:44.898Z,1003.9
2017-03-19T04:25:25.494Z,1003.92
2017-03-19T04:26:06.072Z,1003.92
2017-03-19T04:26:46.653Z,1003.92
2017-03-19T04:27:27.275Z,1003.9
2017-03-19T04:28:07.878Z,1003.91
2017-03-19T04:28:48.432Z,1003.89
2017-03-19T04:29:29.025Z,1003.89
2017-03-19T04:30:09.654Z,1003.86
2017-03-19T04:30:50.243Z,1003.88
2017-03-19T04:31:30.851Z,1003.9
2017-03-19T04:32:11.447Z,1003.9
2017-03-19T04:32:52.016Z,1003.87
2017-03-19T04:33:32.597Z,1003.86
2017-03-19T04:34:13.177Z,1003.86
2017-03-19T04:34:53.758Z,1003.84
2017-03-19T04:35:34.392Z,1003.88
2017-03-19T04:36:14.972Z,1003.9
2017-03-19T04:36:55.602Z,1003.93
2017-03-19T04:37:36.192Z,1003.91
2017-03-19T04:38:16.768Z,1003.91
2017-03-19T04:38:57.370Z,1003.92
2017-03-19T04:39:37.958Z,1003.9
2017-03-19T04:40:18.535Z,1003.98
2017-03-19T04:40:59.115Z,1004.01
2017-03-19T04:41:39.712Z,1003.98
2017-03-19T04:42:20.350Z,1004.01
2017-03-19T04:43:00.931Z,1003.96
2017-03-19T04:43:41.530Z,1003.9
2017-03-19T04:44:22.107Z,1003.91
2017-03-19T04:45:02.676Z,1003.94
2017-03-19T04:45:43.261Z,1003.93
2017-03-19T04:46:23.853Z,1003.92
2017-03-19T04:47:04.463Z,1003.9
2017-03-19T04:47:45.080Z,1003.93
2017-03-19T04:48:25.729Z,1003.98
2017-03-19T04:49:06.352Z,1003.94
2017-03-19T04:49:46.944Z,1004
2017-03-19T04:50:27.528Z,1003.94
2017-03-19T04:51:08.122Z,1003.91
2017-03-19T04:51:48.687Z,1003.89
2017-03-19T04:52:29.271Z,1003.86
2017-03-19T04:53:09.864Z,1003.87
2017-03-19T04:53:50.498Z,1003.87
2017-03-19T04:54:31.079Z,1003.96
2017-03-19T04:55:11.652Z,1003.99
2017-03-19T04:55:52.270Z,1004.01
2017-03-19T04:56:32.916Z,1004.04
2017-03-19T04:57:13.474Z,1004.03
2017-03-19T04:57:54.058Z,1004.02
2017-03-19T04:58:34.634Z,1004.07
2017-03-19T04:59:15.228Z,1004.06
2017-03-19T04:59:55.810Z,1004.12
2017-03-19T05:00:36.422Z,1004.1
2017-03-19T05:01:17.094Z,1004.08
2017-03-19T05:01:57.680Z,1004.09
2017-03-19T05:02:38.252Z,1004.16
2017-03-19T05:03:18.833Z,1004.16
2017-03-19T05:03:59.424Z,1004.13
2017-03-19T05:04:40.009Z,1004.16
2017-03-19T05:05:20.606Z,1004.13
2017-03-19T05:06:01.234Z,1004.13
2017-03-19T05:06:41.791Z,1004.09
2017-03-19T05:07:22.359Z,1004.15
2017-03-19T05:08:02.960Z,1004.08
2017-03-19T05:08:43.542Z,1004.11
2017-03-19T05:10:56.621Z,1004.08
2017-03-19T05:11:37.204Z,1004.12
2017-03-19T05:12:17.767Z,1004.06
2017-03-19T05:12:58.359Z,1004.1
2017-03-19T05:13:38.929Z,1004.14
2017-03-19T05:14:19.496Z,1004.17
2017-03-19T05:15:00.091Z,1004.14
2017-03-19T05:15:40.687Z,1004.17
2017-03-19T05:16:21.293Z,1004.16
2017-03-19T05:17:01.871Z,1004.17
2017-03-19T05:17:42.515Z,1004.16
2017-03-19T05:18:23.129Z,1004.18
2017-03-19T05:19:03.695Z,1004.23
2017-03-19T05:19:44.268Z,1004.24
2017-03-19T05:20:24.838Z,1004.28
2017-03-19T05:21:05.443Z,1004.27
2017-03-19T05:21:46.018Z,1004.31
2017-03-19T05:22:26.576Z,1004.31
2017-03-19T05:23:07.159Z,1004.27
2017-03-19T05:23:47.759Z,1004.27
2017-03-19T05:24:28.311Z,1004.33
2017-03-19T05:25:08.903Z,1004.33
2017-03-19T05:25:49.493Z,1004.35
2017-03-19T05:26:30.079Z,1004.33
2017-03-19T05:27:10.663Z,1004.39
2017-03-19T05:27:51.261Z,1004.4
2017-03-19T05:28:31.852Z,1004.45
2017-03-19T05:29:12.475Z,1004.44
2017-03-19T05:29:53.032Z,1004.45
2017-03-19T05:30:33.605Z,1004.42
2017-03-19T05:31:14.250Z,1004.48
2017-03-19T05:31:54.829Z,1004.46
2017-03-19T05:32:35.438Z,1004.5
2017-03-19T05:33:16.025Z,1004.51
2017-03-19T05:33:56.604Z,1004.5
2017-03-19T05:34:37.232Z,1004.49
2017-03-19T05:35:17.909Z,1004.49
2017-03-19T05:35:58.427Z,1004.51
2017-03-19T05:36:39.101Z,1004.51
2017-03-19T05:37:19.845Z,1004.47
2017-03-19T05:38:00.433Z,1004.51
2017-03-19T05:38:41.034Z,1004.47
2017-03-19T05:39:21.641Z,1004.54
2017-03-19T05:40:02.230Z,1004.52
2017-03-19T05:40:42.842Z,1004.53
2017-03-19T05:41:23.431Z,1004.55
2017-03-19T05:42:04.052Z,1004.58
2017-03-19T05:42:44.793Z,1004.57
2017-03-19T05:43:25.270Z,1004.57
2017-03-19T05:44:06.095Z,1004.59
2017-03-19T05:44:46.508Z,1004.59
2017-03-19T05:45:27.093Z,1004.59
2017-03-19T05:46:07.686Z,1004.57
2017-03-19T05:46:48.259Z,1004.57
2017-03-19T05:47:28.860Z,1004.61
2017-03-19T05:48:09.466Z,1004.56
2017-03-19T05:48:50.046Z,1004.57
2017-03-19T05:49:30.731Z,1004.54
2017-03-19T05:50:11.325Z,1004.52
2017-03-19T05:50:51.897Z,1004.57
2017-03-19T05:51:32.481Z,1004.56
2017-03-19T05:52:13.132Z,1004.5
2017-03-19T05:52:53.749Z,1004.55
2017-03-19T05:53:34.413Z,1004.56
2017-03-19T05:54:14.969Z,1004.56
2017-03-19T05:54:55.566Z,1004.6
2017-03-19T05:55:36.176Z,1004.6
2017-03-19T05:56:16.822Z,1004.63
2017-03-19T05:56:57.465Z,1004.6
2017-03-19T05:57:38.052Z,1004.64
2017-03-19T05:58:18.645Z,1004.66
2017-03-19T05:58:59.270Z,1004.66
2017-03-19T05:59:39.838Z,1004.66
2017-03-19T06:00:20.424Z,1004.67
2017-03-19T06:01:01.012Z,1004.67
2017-03-19T06:01:41.602Z,1004.69
2017-03-19T06:02:22.259Z,1004.68
2017-03-19T06:03:02.916Z,1004.66
2017-03-19T06:03:43.440Z,1004.63
2017-03-19T06:04:24.040Z,1004.64
2017-03-19T06:05:04.632Z,1004.65
2017-03-19T06:05:45.211Z,1004.61
2017-03-19T06:06:25.778Z,1004.66
2017-03-19T06:07:06.381Z,1004.57
2017-03-19T06:07:46.963Z,1004.59
2017-03-19T06:08:27.534Z,1004.6
2017-03-19T06:09:08.117Z,1004.56
2017-03-19T06:09:48.686Z,1004.5
2017-03-19T06:10:29.302Z,1004.51
2017-03-19T06:11:09.891Z,1004.51
2017-03-19T06:11:50.529Z,1004.52
2017-03-19T06:12:31.098Z,1004.5
2017-03-19T06:13:11.683Z,1004.47
2017-03-19T06:13:52.242Z,1004.48
2017-03-19T06:14:32.847Z,1004.5
2017-03-19T06:15:13.432Z,1004.5
2017-03-19T06:15:54.022Z,1004.49
2017-03-19T06:16:34.628Z,1004.54
2017-03-19T06:17:15.216Z,1004.52
2017-03-19T06:17:55.805Z,1004.56
2017-03-19T06:18:36.414Z,1004.56
2017-03-19T06:19:17.009Z,1004.54
2017-03-19T06:19:57.590Z,1004.58
2017-03-19T06:20:38.256Z,1004.62
2017-03-19T06:21:18.821Z,1004.64
2017-03-19T06:21:59.435Z,1004.65
2017-03-19T06:22:40.013Z,1004.65
2017-03-19T06:23:20.597Z,1004.65
2017-03-19T06:24:01.171Z,1004.63
2017-03-19T06:24:41.826Z,1004.65
2017-03-19T06:25:22.478Z,1004.63
2017-03-19T06:26:03.028Z,1004.69
2017-03-19T06:26:43.652Z,1004.7
2017-03-19T06:27:24.346Z,1004.68
2017-03-19T06:28:04.940Z,1004.72
2017-03-19T06:28:45.584Z,1004.7
2017-03-19T06:29:26.156Z,1004.75
2017-03-19T06:30:06.729Z,1004.76
2017-03-19T06:30:47.282Z,1004.75
2017-03-19T06:31:27.922Z,1004.81
2017-03-19T06:32:08.460Z,1004.82
2017-03-19T06:32:49.052Z,1004.81
2017-03-19T06:33:29.657Z,1004.8
2017-03-19T06:34:10.255Z,1004.81
2017-03-19T06:34:50.835Z,1004.83
2017-03-19T06:35:31.416Z,1004.83
2017-03-19T06:36:11.988Z,1004.8
2017-03-19T06:36:52.572Z,1004.85
2017-03-19T06:37:33.182Z,1004.86
2017-03-19T06:38:13.744Z,1004.83
2017-03-19T06:38:54.340Z,1004.84
2017-03-19T06:39:34.919Z,1004.79
2017-03-19T06:40:15.540Z,1004.86
2017-03-19T06:40:56.170Z,1004.8
2017-03-19T06:41:36.780Z,1004.8
2017-03-19T06:42:17.417Z,1004.76
2017-03-19T06:42:58.014Z,1004.76
2017-03-19T06:43:38.586Z,1004.76
2017-03-19T06:44:19.223Z,1004.77
2017-03-19T06:44:59.833Z,1004.8
2017-03-19T06:45:40.450Z,1004.77
2017-03-19T06:46:21.043Z,1004.8
2017-03-19T06:47:01.688Z,1004.81
2017-03-19T06:47:42.299Z,1004.8
2017-03-19T06:48:22.907Z,1004.86
2017-03-19T06:49:03.518Z,1004.87
2017-03-19T06:49:44.101Z,1004.87
2017-03-19T06:50:24.686Z,1004.88
2017-03-19T06:51:05.260Z,1004.9
2017-03-19T06:51:45.825Z,1004.91
2017-03-19T06:52:26.413Z,1004.89
2017-03-19T06:53:07.051Z,1004.89
2017-03-19T06:53:47.701Z,1004.88
2017-03-19T06:54:28.287Z,1004.86
2017-03-19T06:55:08.963Z,1004.86
2017-03-19T06:55:49.575Z,1004.85
2017-03-19T06:56:30.160Z,1004.85
2017-03-19T06:57:10.784Z,1004.84
2017-03-19T06:57:51.368Z,1004.89
2017-03-19T06:58:31.992Z,1004.89
2017-03-19T06:59:12.595Z,1004.89
2017-03-19T06:59:53.207Z,1004.88
2017-03-19T07:00:33.825Z,1004.93
2017-03-19T07:01:14.430Z,1004.93
2017-03-19T07:01:55.143Z,1004.88
2017-03-19T07:02:35.776Z,1004.89
2017-03-19T07:03:16.397Z,1004.89
2017-03-19T07:03:57.104Z,1004.88
2017-03-19T07:04:37.763Z,1004.88
2017-03-19T07:05:18.431Z,1004.87
2017-03-19T07:05:58.958Z,1004.89
2017-03-19T07:06:39.554Z,1004.88
2017-03-19T07:07:20.149Z,1004.88
2017-03-19T07:08:00.739Z,1004.89
2017-03-19T07:08:41.343Z,1004.86
2017-03-19T07:09:21.927Z,1004.89
2017-03-19T07:10:02.555Z,1004.87
2017-03-19T07:10:43.138Z,1004.93
2017-03-19T07:11:23.805Z,1004.95
2017-03-19T07:12:04.391Z,1004.95
2017-03-19T07:12:45.017Z,1004.9
2017-03-19T07:13:25.644Z,1004.92
2017-03-19T07:14:06.284Z,1004.92
2017-03-19T07:14:46.877Z,1004.85
2017-03-19T07:15:27.462Z,1004.9
2017-03-19T07:16:08.082Z,1004.86
2017-03-19T07:16:48.661Z,1004.93
2017-03-19T07:17:29.319Z,1004.89
2017-03-19T07:18:09.925Z,1004.89
2017-03-19T07:18:50.537Z,1004.86
2017-03-19T07:19:31.142Z,1004.85
2017-03-19T07:20:11.734Z,1004.86
2017-03-19T07:20:52.319Z,1004.82
2017-03-19T07:21:32.926Z,1004.82
2017-03-19T07:22:13.515Z,1004.81
2017-03-19T07:22:54.103Z,1004.78
2017-03-19T07:23:34.698Z,1004.77
2017-03-19T07:24:15.313Z,1004.78
2017-03-19T07:24:55.943Z,1004.74
2017-03-19T07:25:36.530Z,1004.79
2017-03-19T07:26:17.114Z,1004.76
2017-03-19T07:26:57.707Z,1004.78
2017-03-19T07:27:38.299Z,1004.79
2017-03-19T07:28:18.962Z,1004.76
2017-03-19T07:28:59.554Z,1004.78
2017-03-19T07:29:40.152Z,1004.74
2017-03-19T07:30:20.766Z,1004.73
2017-03-19T07:31:01.331Z,1004.74
2017-03-19T07:31:41.958Z,1004.76
2017-03-19T07:32:22.532Z,1004.76
2017-03-19T07:33:03.139Z,1004.74
2017-03-19T07:33:43.732Z,1004.77
2017-03-19T07:34:24.587Z,1004.77
2017-03-19T07:35:05.173Z,1004.81
2017-03-19T07:35:45.762Z,1004.81
2017-03-19T07:36:26.339Z,1004.76
2017-03-19T07:37:06.928Z,1004.78
2017-03-19T07:37:47.537Z,1004.73
2017-03-19T07:38:28.092Z,1004.78
2017-03-19T07:39:08.821Z,1004.82
2017-03-19T07:39:49.718Z,1004.8
2017-03-19T07:40:30.340Z,1004.81
2017-03-19T07:41:10.960Z,1004.82
2017-03-19T07:41:51.523Z,1004.83
2017-03-19T07:42:32.122Z,1004.8
2017-03-19T07:43:15.636Z,1004.85
2017-03-19T07:43:56.241Z,1004.85
2017-03-19T07:44:36.880Z,1004.83
2017-03-19T07:45:17.474Z,1004.78
2017-03-19T07:45:58.080Z,1004.81
2017-03-19T07:46:38.716Z,1004.76
2017-03-19T07:47:19.311Z,1004.75
2017-03-19T07:47:59.932Z,1004.76
2017-03-19T07:48:40.529Z,1004.7
2017-03-19T07:49:21.106Z,1004.71
2017-03-19T07:50:01.684Z,1004.71
2017-03-19T07:50:42.314Z,1004.67
2017-03-19T07:51:22.935Z,1004.65
2017-03-19T07:52:03.595Z,1004.63
2017-03-19T07:52:44.201Z,1004.63
2017-03-19T07:53:24.871Z,1004.68
2017-03-19T07:54:05.432Z,1004.66
2017-03-19T07:54:46.043Z,1004.61
2017-03-19T07:55:26.620Z,1004.63
2017-03-19T07:56:07.228Z,1004.64
2017-03-19T07:56:47.834Z,1004.66
2017-03-19T07:57:28.455Z,1004.66
2017-03-19T07:58:09.061Z,1004.63
2017-03-19T07:58:49.650Z,1004.63
2017-03-19T07:59:30.259Z,1004.67
2017-03-19T08:00:10.839Z,1004.63
2017-03-19T08:00:51.407Z,1004.52
2017-03-19T08:01:32.007Z,1004.56
2017-03-19T08:02:12.638Z,1004.57
2017-03-19T08:02:53.255Z,1004.51
2017-03-19T08:03:33.897Z,1004.49
2017-03-19T08:04:14.477Z,1004.54
2017-03-19T08:04:55.073Z,1004.49
2017-03-19T08:05:35.759Z,1004.51
2017-03-19T08:07:33.441Z,1004.45
2017-03-19T08:08:14.017Z,1004.47
2017-03-19T08:08:54.588Z,1004.5
2017-03-19T08:09:35.183Z,1004.44
2017-03-19T08:10:15.827Z,1004.44
2017-03-19T08:10:56.431Z,1004.43
2017-03-19T08:11:37.017Z,1004.42
2017-03-19T08:12:17.643Z,1004.43
2017-03-19T08:12:58.216Z,1004.42
2017-03-19T08:13:38.788Z,1004.38
2017-03-19T08:14:19.413Z,1004.38
2017-03-19T08:15:00.005Z,1004.39
2017-03-19T08:15:40.649Z,1004.35